sensor_id;sensor_type;location;lat;lon;timestamp;pressure;altitude;pressure_sealevel;temperature;humidity
69245;BME280;56357;52.304;4.870;2023-04-29T00:01:51;101750.09;;;17.91;53.36
69245;BME280;56357;52.304;4.870;2023-04-29T00:04:17;101748.75;;;17.93;53.46
69245;BME280;56357;52.304;4.870;2023-04-29T00:06:44;101752.16;;;17.95;53.48
69245;BME280;56357;52.304;4.870;2023-04-29T00:09:11;101754.50;;;18.03;52.91
69245;BME280;56357;52.304;4.870;2023-04-29T00:11:37;101751.56;;;17.93;52.98
69245;BME280;56357;52.304;4.870;2023-04-29T00:14:04;101759.19;;;17.98;53.11
69245;BME280;56357;52.304;4.870;2023-04-29T00:16:30;101759.44;;;17.96;52.99
69245;BME280;56357;52.304;4.870;2023-04-29T00:18:57;101758.94;;;17.99;53.48
69245;BME280;56357;52.304;4.870;2023-04-29T00:21:24;101760.22;;;17.92;53.04
69245;BME280;56357;52.304;4.870;2023-04-29T00:23:52;101765.50;;;17.88;53.44
69245;BME280;56357;52.304;4.870;2023-04-29T00:26:18;101768.91;;;17.90;53.56
69245;BME280;56357;52.304;4.870;2023-04-29T00:28:45;101772.25;;;17.92;53.31
69245;BME280;56357;52.304;4.870;2023-04-29T00:31:11;101774.50;;;17.90;53.10
69245;BME280;56357;52.304;4.870;2023-04-29T00:33:38;101782.22;;;18.00;53.10
69245;BME280;56357;52.304;4.870;2023-04-29T00:36:05;101786.28;;;17.92;53.05
69245;BME280;56357;52.304;4.870;2023-04-29T00:38:32;101794.19;;;17.95;52.80
69245;BME280;56357;52.304;4.870;2023-04-29T00:40:59;101796.56;;;17.87;53.01
69245;BME280;56357;52.304;4.870;2023-04-29T00:43:25;101794.63;;;17.87;52.67
69245;BME280;56357;52.304;4.870;2023-04-29T00:45:52;101794.63;;;17.87;52.51
69245;BME280;56357;52.304;4.870;2023-04-29T00:48:18;101795.47;;;17.88;52.88
69245;BME280;56357;52.304;4.870;2023-04-29T00:50:45;101797.34;;;17.82;53.01
69245;BME280;56357;52.304;4.870;2023-04-29T00:53:12;101799.94;;;17.89;52.52
69245;BME280;56357;52.304;4.870;2023-04-29T00:55:40;101797.47;;;17.92;52.34
69245;BME280;56357;52.304;4.870;2023-04-29T00:58:07;101805.72;;;17.99;52.74
69245;BME280;56357;52.304;4.870;2023-04-29T01:00:34;101799.25;;;17.98;52.18
69245;BME280;56357;52.304;4.870;2023-04-29T01:03:01;101799.56;;;17.80;52.55
69245;BME280;56357;52.304;4.870;2023-04-29T01:05:28;101809.97;;;17.85;52.73
69245;BME280;56357;52.304;4.870;2023-04-29T01:08:15;101805.22;;;17.85;52.58
69245;BME280;56357;52.304;4.870;2023-04-29T01:10:53;101803.53;;;17.84;52.74
69245;BME280;56357;52.304;4.870;2023-04-29T01:13:29;101812.53;;;17.86;52.45
69245;BME280;56357;52.304;4.870;2023-04-29T01:16:17;101822.31;;;17.84;52.64
69245;BME280;56357;52.304;4.870;2023-04-29T01:18:53;101825.78;;;17.74;52.82
69245;BME280;56357;52.304;4.870;2023-04-29T01:21:20;101827.56;;;17.80;53.06
69245;BME280;56357;52.304;4.870;2023-04-29T01:23:47;101825.25;;;17.77;52.70
69245;BME280;56357;52.304;4.870;2023-04-29T01:26:20;101825.25;;;17.77;52.58
69245;BME280;56357;52.304;4.870;2023-04-29T01:28:54;101828.59;;;17.74;52.68
69245;BME280;56357;52.304;4.870;2023-04-29T01:31:33;101832.31;;;17.80;52.65
69245;BME280;56357;52.304;4.870;2023-04-29T01:34:08;101830.28;;;17.75;52.81
69245;BME280;56357;52.304;4.870;2023-04-29T01:36:48;101841.59;;;17.80;52.72
69245;BME280;56357;52.304;4.870;2023-04-29T01:39:19;101841.47;;;17.75;52.63
69245;BME280;56357;52.304;4.870;2023-04-29T01:41:56;101836.72;;;17.76;52.61
69245;BME280;56357;52.304;4.870;2023-04-29T01:44:27;101838.59;;;17.70;52.74
69245;BME280;56357;52.304;4.870;2023-04-29T01:46:54;101842.00;;;17.72;52.70
69245;BME280;56357;52.304;4.870;2023-04-29T01:49:26;101848.59;;;17.83;52.41
69245;BME280;56357;52.304;4.870;2023-04-29T01:51:52;101836.72;;;17.76;52.40
69245;BME280;56357;52.304;4.870;2023-04-29T01:54:20;101848.81;;;17.76;52.42
69245;BME280;56357;52.304;4.870;2023-04-29T01:56:47;101847.69;;;17.77;52.47
69245;BME280;56357;52.304;4.870;2023-04-29T01:59:14;101839.13;;;17.67;52.50
69245;BME280;56357;52.304;4.870;2023-04-29T02:01:40;101842.88;;;17.73;52.42
69245;BME280;56357;52.304;4.870;2023-04-29T02:04:07;101841.66;;;17.69;52.45
69245;BME280;56357;52.304;4.870;2023-04-29T02:06:33;101843.00;;;17.66;52.31
69245;BME280;56357;52.304;4.870;2023-04-29T02:09:00;101856.53;;;17.69;52.46
69245;BME280;56357;52.304;4.870;2023-04-29T02:11:26;101852.16;;;17.62;52.58
69245;BME280;56357;52.304;4.870;2023-04-29T02:13:53;101858.38;;;17.64;52.45
69245;BME280;56357;52.304;4.870;2023-04-29T02:16:20;101854.22;;;17.66;52.29
69245;BME280;56357;52.304;4.870;2023-04-29T02:18:47;101852.63;;;17.70;52.26
69245;BME280;56357;52.304;4.870;2023-04-29T02:21:13;101860.94;;;17.65;52.18
69245;BME280;56357;52.304;4.870;2023-04-29T02:23:40;101864.16;;;17.74;52.02
69245;BME280;56357;52.304;4.870;2023-04-29T02:26:06;101865.44;;;17.66;52.41
69245;BME280;56357;52.304;4.870;2023-04-29T02:28:33;101870.16;;;17.66;52.32
69245;BME280;56357;52.304;4.870;2023-04-29T02:31:00;101860.94;;;17.65;51.88
69245;BME280;56357;52.304;4.870;2023-04-29T02:33:27;101875.97;;;17.59;52.31
69245;BME280;56357;52.304;4.870;2023-04-29T02:35:53;101877.50;;;17.67;52.06
69245;BME280;56357;52.304;4.870;2023-04-29T02:38:19;101875.28;;;17.69;52.07
69245;BME280;56357;52.304;4.870;2023-04-29T02:40:46;101883.34;;;17.65;51.84
69245;BME280;56357;52.304;4.870;2023-04-29T02:43:13;101887.97;;;17.60;52.20
69245;BME280;56357;52.304;4.870;2023-04-29T02:45:39;101885.78;;;17.62;51.99
69245;BME280;56357;52.304;4.870;2023-04-29T02:48:06;101887.75;;;17.61;51.67
69245;BME280;56357;52.304;4.870;2023-04-29T02:50:32;101891.97;;;17.64;51.60
69245;BME280;56357;52.304;4.870;2023-04-29T02:52:59;101897.16;;;17.55;52.15
69245;BME280;56357;52.304;4.870;2023-04-29T02:55:25;101898.84;;;17.56;52.03
69245;BME280;56357;52.304;4.870;2023-04-29T02:57:52;101888.25;;;17.58;52.00
69245;BME280;56357;52.304;4.870;2023-04-29T03:00:18;101898.16;;;17.49;52.12
69245;BME280;56357;52.304;4.870;2023-04-29T03:02:46;101890.97;;;17.53;52.38
69245;BME280;56357;52.304;4.870;2023-04-29T03:05:12;101905.31;;;17.57;51.94
69245;BME280;56357;52.304;4.870;2023-04-29T03:07:39;101903.63;;;17.56;52.12
69245;BME280;56357;52.304;4.870;2023-04-29T03:10:06;101912.03;;;17.56;52.44
69245;BME280;56357;52.304;4.870;2023-04-29T03:12:33;101905.22;;;17.52;52.08
69245;BME280;56357;52.304;4.870;2023-04-29T03:14:59;101911.25;;;17.60;52.35
69245;BME280;56357;52.304;4.870;2023-04-29T03:17:26;101912.63;;;17.58;52.08
69245;BME280;56357;52.304;4.870;2023-04-29T03:19:52;101923.06;;;17.62;51.99
69245;BME280;56357;52.304;4.870;2023-04-29T03:22:19;101925.19;;;17.55;52.02
69245;BME280;56357;52.304;4.870;2023-04-29T03:24:45;101919.16;;;17.63;52.20
69245;BME280;56357;52.304;4.870;2023-04-29T03:27:12;101925.88;;;17.62;51.92
69245;BME280;56357;52.304;4.870;2023-04-29T03:29:38;101929.00;;;17.66;51.84
69245;BME280;56357;52.304;4.870;2023-04-29T03:32:05;101924.78;;;17.63;52.43
69245;BME280;56357;52.304;4.870;2023-04-29T03:34:31;101926.72;;;17.63;52.28
69245;BME280;56357;52.304;4.870;2023-04-29T03:36:58;101929.13;;;17.71;52.22
69245;BME280;56357;52.304;4.870;2023-04-29T03:39:25;101927.31;;;17.65;52.39
69245;BME280;56357;52.304;4.870;2023-04-29T03:41:55;101936.91;;;17.69;52.54
69245;BME280;56357;52.304;4.870;2023-04-29T03:44:22;101938.59;;;17.70;52.18
69245;BME280;56357;52.304;4.870;2023-04-29T03:46:48;101950.16;;;17.73;52.42
69245;BME280;56357;52.304;4.870;2023-04-29T03:49:15;101940.06;;;17.72;52.27
69245;BME280;56357;52.304;4.870;2023-04-29T03:51:41;101936.91;;;17.69;52.56
69245;BME280;56357;52.304;4.870;2023-04-29T03:54:09;101939.53;;;17.75;52.23
69245;BME280;56357;52.304;4.870;2023-04-29T03:56:35;101947.63;;;17.72;52.44
69245;BME280;56357;52.304;4.870;2023-04-29T03:59:02;101942.00;;;17.72;52.40
69245;BME280;56357;52.304;4.870;2023-04-29T04:01:28;101947.47;;;17.78;52.11
69245;BME280;56357;52.304;4.870;2023-04-29T04:03:55;101957.06;;;17.82;52.26
69245;BME280;56357;52.304;4.870;2023-04-29T04:06:22;101956.97;;;17.77;52.35
69245;BME280;56357;52.304;4.870;2023-04-29T04:08:48;101961.56;;;17.83;52.33
69245;BME280;56357;52.304;4.870;2023-04-29T04:11:14;101957.06;;;17.82;52.07
69245;BME280;56357;52.304;4.870;2023-04-29T04:13:41;101965.47;;;17.82;52.44
69245;BME280;56357;52.304;4.870;2023-04-29T04:16:08;101964.63;;;17.82;52.22
69245;BME280;56357;52.304;4.870;2023-04-29T04:18:36;101965.56;;;17.87;52.24
69245;BME280;56357;52.304;4.870;2023-04-29T04:21:10;101956.47;;;17.80;52.46
69245;BME280;56357;52.304;4.870;2023-04-29T04:23:37;101973.97;;;17.87;52.17
69245;BME280;56357;52.304;4.870;2023-04-29T04:26:05;101967.88;;;17.90;52.24
69245;BME280;56357;52.304;4.870;2023-04-29T04:28:32;101976.84;;;17.92;52.31
69245;BME280;56357;52.304;4.870;2023-04-29T04:30:58;101985.25;;;17.92;52.39
69245;BME280;56357;52.304;4.870;2023-04-29T04:33:25;101990.38;;;17.95;52.10
69245;BME280;56357;52.304;4.870;2023-04-29T04:35:51;101990.44;;;18.00;52.17
69245;BME280;56357;52.304;4.870;2023-04-29T04:38:17;101996.59;;;17.97;52.15
69245;BME280;56357;52.304;4.870;2023-04-29T04:40:44;101996.72;;;17.91;52.42
69245;BME280;56357;52.304;4.870;2023-04-29T04:43:11;101997.84;;;18.06;51.78
69245;BME280;56357;52.304;4.870;2023-04-29T04:45:37;101995.47;;;17.98;52.25
69245;BME280;56357;52.304;4.870;2023-04-29T04:48:03;102005.84;;;17.98;51.98
69245;BME280;56357;52.304;4.870;2023-04-29T04:50:30;102009.84;;;18.02;52.11
69245;BME280;56357;52.304;4.870;2023-04-29T04:52:56;102012.19;;;17.93;52.13
69245;BME280;56357;52.304;4.870;2023-04-29T04:55:23;102016.88;;;18.04;52.27
69245;BME280;56357;52.304;4.870;2023-04-29T04:57:50;102015.59;;;17.95;52.25
69245;BME280;56357;52.304;4.870;2023-04-29T05:00:16;102022.34;;;18.11;51.82
69245;BME280;56357;52.304;4.870;2023-04-29T05:02:43;102029.22;;;18.03;51.73
69245;BME280;56357;52.304;4.870;2023-04-29T05:05:09;102021.94;;;18.19;51.50
69245;BME280;56357;52.304;4.870;2023-04-29T05:07:36;102028.22;;;18.09;51.93
69245;BME280;56357;52.304;4.870;2023-04-29T05:10:02;102029.63;;;18.12;52.28
69245;BME280;56357;52.304;4.870;2023-04-29T05:12:30;102036.84;;;18.08;51.75
69245;BME280;56357;52.304;4.870;2023-04-29T05:14:57;102037.56;;;18.15;51.74
69245;BME280;56357;52.304;4.870;2023-04-29T05:17:23;102039.09;;;18.22;51.58
69245;BME280;56357;52.304;4.870;2023-04-29T05:19:50;102041.97;;;18.11;51.62
69245;BME280;56357;52.304;4.870;2023-04-29T05:22:16;102045.09;;;18.14;51.89
69245;BME280;56357;52.304;4.870;2023-04-29T05:24:43;102053.59;;;18.19;51.63
69245;BME280;56357;52.304;4.870;2023-04-29T05:27:09;102049.72;;;18.20;51.68
69245;BME280;56357;52.304;4.870;2023-04-29T05:29:35;102047.84;;;18.26;51.37
69245;BME280;56357;52.304;4.870;2023-04-29T05:32:02;102045.72;;;18.16;51.87
69245;BME280;56357;52.304;4.870;2023-04-29T05:34:29;102050.66;;;18.26;51.57
69245;BME280;56357;52.304;4.870;2023-04-29T05:36:55;102047.16;;;18.19;51.61
69245;BME280;56357;52.304;4.870;2023-04-29T05:39:22;102055.41;;;18.25;51.68
69245;BME280;56357;52.304;4.870;2023-04-29T05:41:48;102053.66;;;18.36;51.41
69245;BME280;56357;52.304;4.870;2023-04-29T05:44:15;102051.84;;;18.30;51.71
69245;BME280;56357;52.304;4.870;2023-04-29T05:46:41;102061.59;;;18.27;51.64
69245;BME280;56357;52.304;4.870;2023-04-29T05:49:08;102065.09;;;18.35;51.49
69245;BME280;56357;52.304;4.870;2023-04-29T05:51:34;102071.63;;;18.52;50.68
69245;BME280;56357;52.304;4.870;2023-04-29T05:54:01;102074.31;;;18.47;51.41
69245;BME280;56357;52.304;4.870;2023-04-29T05:56:27;102072.31;;;18.59;50.57
69245;BME280;56357;52.304;4.870;2023-04-29T05:58:53;102079.34;;;18.45;51.13
69245;BME280;56357;52.304;4.870;2023-04-29T06:01:20;102082.78;;;18.35;51.57
69245;BME280;56357;52.304;4.870;2023-04-29T06:03:46;102089.59;;;18.39;51.37
69245;BME280;56357;52.304;4.870;2023-04-29T06:06:13;102089.25;;;18.36;52.67
69245;BME280;56357;52.304;4.870;2023-04-29T06:08:40;102098.47;;;18.48;52.31
69245;BME280;56357;52.304;4.870;2023-04-29T06:11:06;102093.06;;;18.29;51.52
69245;BME280;56357;52.304;4.870;2023-04-29T06:13:33;102088.38;;;18.18;51.38
69245;BME280;56357;52.304;4.870;2023-04-29T06:16:00;102100.28;;;18.25;51.37
69245;BME280;56357;52.304;4.870;2023-04-29T06:18:26;102103.19;;;18.31;51.58
69245;BME280;56357;52.304;4.870;2023-04-29T06:20:53;102103.78;;;18.33;51.53
69245;BME280;56357;52.304;4.870;2023-04-29T06:23:19;102102.91;;;18.44;51.13
69245;BME280;56357;52.304;4.870;2023-04-29T06:25:45;102116.66;;;18.45;51.56
69245;BME280;56357;52.304;4.870;2023-04-29T06:28:12;102116.34;;;18.58;50.80
69245;BME280;56357;52.304;4.870;2023-04-29T06:30:39;102119.41;;;18.73;50.74
69245;BME280;56357;52.304;4.870;2023-04-29T06:33:05;102119.31;;;18.85;50.71
69245;BME280;56357;52.304;4.870;2023-04-29T06:35:32;102123.66;;;18.92;50.41
69245;BME280;56357;52.304;4.870;2023-04-29T06:37:58;102135.31;;;19.01;50.15
69245;BME280;56357;52.304;4.870;2023-04-29T06:40:24;102135.72;;;19.09;50.13
69245;BME280;56357;52.304;4.870;2023-04-29T06:42:51;102138.91;;;19.13;50.16
69245;BME280;56357;52.304;4.870;2023-04-29T06:45:17;102142.88;;;19.34;49.97
69245;BME280;56357;52.304;4.870;2023-04-29T06:47:44;102137.94;;;19.41;49.68
69245;BME280;56357;52.304;4.870;2023-04-29T06:50:10;102143.22;;;19.37;49.58
69245;BME280;56357;52.304;4.870;2023-04-29T06:52:37;102142.78;;;19.45;49.74
69245;BME280;56357;52.304;4.870;2023-04-29T06:55:03;102149.81;;;19.64;49.06
69245;BME280;56357;52.304;4.870;2023-04-29T06:57:30;102145.88;;;19.65;48.78
69245;BME280;56357;52.304;4.870;2023-04-29T06:59:57;102150.00;;;19.79;50.43
69245;BME280;56357;52.304;4.870;2023-04-29T07:02:24;102154.78;;;19.57;49.14
69245;BME280;56357;52.304;4.870;2023-04-29T07:04:50;102159.06;;;19.27;48.43
69245;BME280;56357;52.304;4.870;2023-04-29T07:07:17;102161.44;;;19.18;48.85
69245;BME280;56357;52.304;4.870;2023-04-29T07:09:43;102167.22;;;19.28;48.94
69245;BME280;56357;52.304;4.870;2023-04-29T07:12:10;102176.72;;;19.27;49.25
69245;BME280;56357;52.304;4.870;2023-04-29T07:14:36;102175.03;;;19.26;49.37
69245;BME280;56357;52.304;4.870;2023-04-29T07:17:03;102178.28;;;19.35;50.26
69245;BME280;56357;52.304;4.870;2023-04-29T07:19:29;102188.50;;;19.24;50.26
69245;BME280;56357;52.304;4.870;2023-04-29T07:21:56;102185.28;;;19.32;50.69
69245;BME280;56357;52.304;4.870;2023-04-29T07:24:22;102190.22;;;19.42;50.22
69245;BME280;56357;52.304;4.870;2023-04-29T07:26:49;102186.81;;;19.40;50.63
69245;BME280;56357;52.304;4.870;2023-04-29T07:29:15;102190.28;;;19.47;51.50
69245;BME280;56357;52.304;4.870;2023-04-29T07:31:42;102194.13;;;19.57;50.60
69245;BME280;56357;52.304;4.870;2023-04-29T07:34:08;102189.25;;;19.53;49.93
69245;BME280;56357;52.304;4.870;2023-04-29T07:36:34;102199.13;;;19.55;49.99
69245;BME280;56357;52.304;4.870;2023-04-29T07:39:01;102195.41;;;19.50;50.43
69245;BME280;56357;52.304;4.870;2023-04-29T07:41:28;102201.16;;;19.60;51.37
69245;BME280;56357;52.304;4.870;2023-04-29T07:43:55;102205.47;;;19.67;50.99
69245;BME280;56357;52.304;4.870;2023-04-29T07:46:21;102207.47;;;19.50;50.25
69245;BME280;56357;52.304;4.870;2023-04-29T07:48:48;102207.69;;;19.65;50.23
69245;BME280;56357;52.304;4.870;2023-04-29T07:51:14;102219.03;;;19.54;49.59
69245;BME280;56357;52.304;4.870;2023-04-29T07:53:41;102224.44;;;19.39;50.28
69245;BME280;56357;52.304;4.870;2023-04-29T07:56:08;102223.72;;;19.48;49.53
69245;BME280;56357;52.304;4.870;2023-04-29T07:58:34;102224.44;;;19.39;50.14
69245;BME280;56357;52.304;4.870;2023-04-29T08:01:08;102223.06;;;19.41;49.63
69245;BME280;56357;52.304;4.870;2023-04-29T08:03:35;102231.16;;;19.38;50.04
69245;BME280;56357;52.304;4.870;2023-04-29T08:06:03;102225.34;;;19.44;50.58
69245;BME280;56357;52.304;4.870;2023-04-29T08:08:30;102227.00;;;19.40;50.01
69245;BME280;56357;52.304;4.870;2023-04-29T08:10:57;102233.13;;;19.37;49.95
69245;BME280;56357;52.304;4.870;2023-04-29T08:13:24;102238.13;;;19.35;49.61
69245;BME280;56357;52.304;4.870;2023-04-29T08:15:50;102234.47;;;19.35;49.88
69245;BME280;56357;52.304;4.870;2023-04-29T08:18:17;102227.66;;;19.31;49.77
69245;BME280;56357;52.304;4.870;2023-04-29T08:20:46;102235.06;;;19.37;49.65
69245;BME280;56357;52.304;4.870;2023-04-29T08:23:13;102230.84;;;19.34;49.33
69245;BME280;56357;52.304;4.870;2023-04-29T08:25:42;102241.53;;;19.37;49.63
69245;BME280;56357;52.304;4.870;2023-04-29T08:28:09;102239.31;;;19.56;50.34
69245;BME280;56357;52.304;4.870;2023-04-29T08:30:38;102246.03;;;19.71;49.77
69245;BME280;56357;52.304;4.870;2023-04-29T08:33:04;102250.22;;;19.69;49.88
69245;BME280;56357;52.304;4.870;2023-04-29T08:35:32;102245.94;;;19.66;48.01
69245;BME280;56357;52.304;4.870;2023-04-29T08:37:58;102245.09;;;19.33;46.48
69245;BME280;56357;52.304;4.870;2023-04-29T08:40:25;102247.91;;;19.33;46.74
69245;BME280;56357;52.304;4.870;2023-04-29T08:42:53;102244.16;;;19.27;46.53
69245;BME280;56357;52.304;4.870;2023-04-29T08:45:22;102248.63;;;19.40;46.92
69245;BME280;56357;52.304;4.870;2023-04-29T08:47:50;102249.81;;;19.44;46.78
69245;BME280;56357;52.304;4.870;2023-04-29T08:50:16;102247.59;;;19.46;46.79
69245;BME280;56357;52.304;4.870;2023-04-29T08:52:43;102254.06;;;19.46;46.84
69245;BME280;56357;52.304;4.870;2023-04-29T08:55:09;102255.75;;;19.47;46.82
69245;BME280;56357;52.304;4.870;2023-04-29T08:57:36;102268.47;;;19.50;46.55
69245;BME280;56357;52.304;4.870;2023-04-29T09:00:08;102269.88;;;19.52;46.61
69245;BME280;56357;52.304;4.870;2023-04-29T09:02:43;102280.09;;;19.58;47.11
69245;BME280;56357;52.304;4.870;2023-04-29T09:05:11;102276.72;;;19.40;47.69
69245;BME280;56357;52.304;4.870;2023-04-29T09:07:38;102274.84;;;19.45;47.22
69245;BME280;56357;52.304;4.870;2023-04-29T09:10:05;102277.72;;;19.34;47.42
69245;BME280;56357;52.304;4.870;2023-04-29T09:12:32;102275.94;;;19.44;47.32
69245;BME280;56357;52.304;4.870;2023-04-29T09:14:58;102287.44;;;19.59;47.91
69245;BME280;56357;52.304;4.870;2023-04-29T09:17:44;102283.41;;;19.72;46.97
69245;BME280;56357;52.304;4.870;2023-04-29T09:22:54;102281.38;;;19.84;48.48
69245;BME280;56357;52.304;4.870;2023-04-29T09:25:21;102278.72;;;19.94;47.48
69245;BME280;56357;52.304;4.870;2023-04-29T09:27:47;102283.97;;;19.90;47.38
69245;BME280;56357;52.304;4.870;2023-04-29T09:30:14;102282.66;;;19.76;47.52
69245;BME280;56357;52.304;4.870;2023-04-29T09:32:41;102287.25;;;19.82;48.09
69245;BME280;56357;52.304;4.870;2023-04-29T09:35:24;102283.59;;;19.82;47.22
69245;BME280;56357;52.304;4.870;2023-04-29T09:37:51;102289.44;;;19.97;46.86
69245;BME280;56357;52.304;4.870;2023-04-29T09:42:56;102291.31;;;19.75;47.59
69245;BME280;56357;52.304;4.870;2023-04-29T09:45:40;102294.03;;;19.86;47.33
69245;BME280;56357;52.304;4.870;2023-04-29T09:48:08;102294.19;;;19.96;47.49
69245;BME280;56357;52.304;4.870;2023-04-29T09:50:35;102298.63;;;19.92;47.37
69245;BME280;56357;52.304;4.870;2023-04-29T09:53:02;102286.09;;;20.00;49.49
69245;BME280;56357;52.304;4.870;2023-04-29T09:55:29;102292.41;;;20.07;48.71
69245;BME280;56357;52.304;4.870;2023-04-29T09:57:56;102297.59;;;20.15;48.55
69245;BME280;56357;52.304;4.870;2023-04-29T10:00:23;102301.22;;;20.16;47.87
69245;BME280;56357;52.304;4.870;2023-04-29T10:02:53;102301.66;;;20.07;47.49
69245;BME280;56357;52.304;4.870;2023-04-29T10:05:22;102305.09;;;20.26;49.28
69245;BME280;56357;52.304;4.870;2023-04-29T10:07:49;102296.81;;;20.20;48.62
69245;BME280;56357;52.304;4.870;2023-04-29T10:10:17;102300.81;;;20.24;48.08
69245;BME280;56357;52.304;4.870;2023-04-29T10:12:44;102299.47;;;20.26;47.94
69245;BME280;56357;52.304;4.870;2023-04-29T10:15:38;102296.06;;;20.24;46.86
69245;BME280;56357;52.304;4.870;2023-04-29T10:18:13;102288.88;;;20.17;46.59
69245;BME280;56357;52.304;4.870;2023-04-29T10:20:46;102308.03;;;20.36;47.75
69245;BME280;56357;52.304;4.870;2023-04-29T10:23:14;102292.09;;;20.25;47.54
69245;BME280;56357;52.304;4.870;2023-04-29T10:25:41;102291.00;;;20.26;46.45
69245;BME280;56357;52.304;4.870;2023-04-29T10:28:12;102300.16;;;20.38;48.45
69245;BME280;56357;52.304;4.870;2023-04-29T10:30:44;102301.75;;;20.51;49.19
69245;BME280;56357;52.304;4.870;2023-04-29T10:33:16;102297.88;;;20.57;49.36
69245;BME280;56357;52.304;4.870;2023-04-29T10:35:45;102303.19;;;20.53;47.80
69245;BME280;56357;52.304;4.870;2023-04-29T10:38:21;102298.03;;;20.45;48.14
69245;BME280;56357;52.304;4.870;2023-04-29T10:40:51;102304.63;;;20.56;49.86
69245;BME280;56357;52.304;4.870;2023-04-29T10:43:24;102293.75;;;20.64;47.99
69245;BME280;56357;52.304;4.870;2023-04-29T10:46:16;102298.22;;;20.60;50.33
69245;BME280;56357;52.304;4.870;2023-04-29T10:48:44;102295.22;;;20.67;50.09
69245;BME280;56357;52.304;4.870;2023-04-29T10:51:10;102290.81;;;20.76;49.62
69245;BME280;56357;52.304;4.870;2023-04-29T10:54:00;102299.25;;;20.76;50.06
69245;BME280;56357;52.304;4.870;2023-04-29T10:56:41;102306.06;;;20.80;49.68
69245;BME280;56357;52.304;4.870;2023-04-29T10:59:13;102305.94;;;20.70;47.83
69245;BME280;56357;52.304;4.870;2023-04-29T11:01:41;102299.16;;;20.71;48.04
69245;BME280;56357;52.304;4.870;2023-04-29T11:04:07;102303.75;;;20.77;49.79
69245;BME280;56357;52.304;4.870;2023-04-29T11:09:14;102301.09;;;20.92;49.25
69245;BME280;56357;52.304;4.870;2023-04-29T11:11:56;102298.94;;;20.99;49.46
69245;BME280;56357;52.304;4.870;2023-04-29T11:16:55;102292.81;;;21.02;48.22
69245;BME280;56357;52.304;4.870;2023-04-29T11:19:24;102302.16;;;21.08;49.75
69245;BME280;56357;52.304;4.870;2023-04-29T11:27:18;102307.41;;;21.26;48.32
69245;BME280;56357;52.304;4.870;2023-04-29T11:29:48;102307.44;;;21.31;49.08
69245;BME280;56357;52.304;4.870;2023-04-29T11:32:15;102308.91;;;21.33;48.42
69245;BME280;56357;52.304;4.870;2023-04-29T11:34:41;102303.88;;;21.40;48.60
69245;BME280;56357;52.304;4.870;2023-04-29T11:37:08;102304.75;;;21.41;48.66
69245;BME280;56357;52.304;4.870;2023-04-29T11:39:34;102299.69;;;21.43;49.13
69245;BME280;56357;52.304;4.870;2023-04-29T11:42:05;102309.28;;;21.42;47.55
69245;BME280;56357;52.304;4.870;2023-04-29T11:44:35;102309.59;;;21.45;49.15
69245;BME280;56357;52.304;4.870;2023-04-29T11:47:05;102316.09;;;21.51;48.70
69245;BME280;56357;52.304;4.870;2023-04-29T11:49:33;102304.25;;;21.49;48.89
69245;BME280;56357;52.304;4.870;2023-04-29T11:52:01;102318.94;;;21.51;48.95
69245;BME280;56357;52.304;4.870;2023-04-29T11:54:31;102311.91;;;21.53;47.68
69245;BME280;56357;52.304;4.870;2023-04-29T11:56:57;102320.72;;;21.62;49.18
69245;BME280;56357;52.304;4.870;2023-04-29T11:59:26;102318.69;;;21.57;49.26
69245;BME280;56357;52.304;4.870;2023-04-29T12:01:53;102310.81;;;21.59;48.11
69245;BME280;56357;52.304;4.870;2023-04-29T12:04:22;102310.97;;;21.43;48.47
69245;BME280;56357;52.304;4.870;2023-04-29T12:06:52;102307.06;;;21.49;47.45
69245;BME280;56357;52.304;4.870;2023-04-29T12:09:22;102310.50;;;21.56;49.21
69245;BME280;56357;52.304;4.870;2023-04-29T12:11:48;102307.75;;;21.61;46.88
69245;BME280;56357;52.304;4.870;2023-04-29T12:14:15;102309.72;;;21.60;47.87
69245;BME280;56357;52.304;4.870;2023-04-29T12:16:43;102305.16;;;21.59;47.03
69245;BME280;56357;52.304;4.870;2023-04-29T12:19:10;102301.78;;;21.57;48.75
69245;BME280;56357;52.304;4.870;2023-04-29T12:21:47;102317.59;;;21.58;48.08
69245;BME280;56357;52.304;4.870;2023-04-29T12:24:13;102308.00;;;21.59;48.72
69245;BME280;56357;52.304;4.870;2023-04-29T12:26:40;102317.31;;;21.60;47.08
69245;BME280;56357;52.304;4.870;2023-04-29T12:29:09;102312.81;;;21.59;45.71
69245;BME280;56357;52.304;4.870;2023-04-29T12:31:36;102317.50;;;21.48;44.17
69245;BME280;56357;52.304;4.870;2023-04-29T12:34:03;102322.53;;;21.46;42.61
69245;BME280;56357;52.304;4.870;2023-04-29T12:36:30;102317.16;;;21.40;42.41
69245;BME280;56357;52.304;4.870;2023-04-29T12:38:57;102319.63;;;21.36;41.62
69245;BME280;56357;52.304;4.870;2023-04-29T12:41:37;102328.63;;;21.33;41.08
69245;BME280;56357;52.304;4.870;2023-04-29T12:44:04;102326.00;;;21.27;41.04
69245;BME280;56357;52.304;4.870;2023-04-29T12:46:38;102330.00;;;21.31;40.21
69245;BME280;56357;52.304;4.870;2023-04-29T12:49:06;102328.63;;;21.33;39.67
69245;BME280;56357;52.304;4.870;2023-04-29T12:51:34;102331.41;;;21.28;40.17
69245;BME280;56357;52.304;4.870;2023-04-29T12:54:02;102328.00;;;21.26;39.70
69245;BME280;56357;52.304;4.870;2023-04-29T12:56:31;102325.66;;;21.18;39.72
69245;BME280;56357;52.304;4.870;2023-04-29T12:59:08;102324.50;;;21.14;39.71
69245;BME280;56357;52.304;4.870;2023-04-29T13:01:36;102325.13;;;21.21;38.68
69245;BME280;56357;52.304;4.870;2023-04-29T13:04:02;102334.00;;;21.08;39.34
69245;BME280;56357;52.304;4.870;2023-04-29T13:06:30;102326.09;;;21.05;38.83
69245;BME280;56357;52.304;4.870;2023-04-29T13:08:57;102332.34;;;21.12;38.79
69245;BME280;56357;52.304;4.870;2023-04-29T13:11:23;102331.63;;;21.00;39.18